createdAt,value
2022-10-17T00:00:16.815Z,99.99
2022-10-17T00:01:17.207Z,99.99
2022-10-17T00:02:17.457Z,99.99
2022-10-17T00:03:17.775Z,99.99
2022-10-17T00:04:18.083Z,99.99
2022-10-17T00:05:18.402Z,99.99
2022-10-17T00:06:18.743Z,99.99
2022-10-17T00:07:19.050Z,99.99
2022-10-17T00:08:19.369Z,99.99
2022-10-17T00:09:19.668Z,99.99
2022-10-17T00:10:19.951Z,99.99
2022-10-17T00:11:20.280Z,99.99
2022-10-17T00:12:20.585Z,99.99
2022-10-17T00:13:20.921Z,99.99
2022-10-17T00:14:21.170Z,99.99
2022-10-17T00:15:21.500Z,99.99
2022-10-17T00:16:21.801Z,99.99
2022-10-17T00:17:22.106Z,99.99
2022-10-17T00:18:22.400Z,99.99
2022-10-17T00:19:22.688Z,99.99
2022-10-17T00:20:23.022Z,99.99
2022-10-17T00:21:23.326Z,99.99
2022-10-17T00:22:23.694Z,99.99
2022-10-17T00:23:23.887Z,99.99
2022-10-17T00:24:24.227Z,99.99
2022-10-17T00:25:24.540Z,99.99
2022-10-17T00:26:24.859Z,99.99
2022-10-17T00:27:25.423Z,99.99
2022-10-17T00:28:25.433Z,99.99
2022-10-17T00:29:25.777Z,99.99
2022-10-17T00:30:26.094Z,99.99
2022-10-17T00:31:26.413Z,99.99
2022-10-17T00:32:26.953Z,99.99
2022-10-17T00:33:26.908Z,99.99
2022-10-17T00:34:27.237Z,99.99
2022-10-17T00:35:27.565Z,99.99
2022-10-17T00:36:27.915Z,99.99
2022-10-17T00:37:28.113Z,99.99
2022-10-17T00:38:28.427Z,99.99
2022-10-17T00:39:28.741Z,99.99
2022-10-17T00:40:29.053Z,99.99
2022-10-17T00:41:29.388Z,99.99
2022-10-17T00:42:30.070Z,99.99
2022-10-17T00:43:29.834Z,99.99
2022-10-17T00:44:30.136Z,99.99
2022-10-17T00:45:30.451Z,99.99
2022-10-17T00:46:30.800Z,99.99
2022-10-17T00:47:31.000Z,99.99
2022-10-17T00:48:31.336Z,99.99
2022-10-17T00:49:31.670Z,99.99
2022-10-17T00:50:31.868Z,99.99
2022-10-17T00:51:32.201Z,99.99
2022-10-17T02:55:58.044Z,99.99
2022-10-17T02:56:58.312Z,99.99
2022-10-17T02:57:58.565Z,99.99
2022-10-17T02:58:58.823Z,99.99
2022-10-17T02:59:59.068Z,99.99
2022-10-17T03:00:59.292Z,99.99
2022-10-17T03:01:59.543Z,99.99
2022-10-17T03:02:59.895Z,99.99
2022-10-17T03:04:00.125Z,99.99
2022-10-17T03:05:00.449Z,99.99
2022-10-17T03:06:00.754Z,99.99
2022-10-17T03:07:01.066Z,99.99
2022-10-17T03:08:01.417Z,99.99
2022-10-17T03:09:01.622Z,99.99
2022-10-17T03:10:01.941Z,99.99
2022-10-17T03:11:02.255Z,99.99
2022-10-17T03:12:02.564Z,99.99
2022-10-17T03:13:02.913Z,99.99
2022-10-17T03:14:03.134Z,99.99
2022-10-17T03:15:03.464Z,99.99
2022-10-17T03:16:03.833Z,99.99
2022-10-17T03:17:04.052Z,99.99
2022-10-17T03:18:04.380Z,99.99
2022-10-17T03:19:04.683Z,99.99
2022-10-17T03:20:05.012Z,99.89
2022-10-17T03:21:05.206Z,99.48
2022-10-17T03:22:05.504Z,99.89
2022-10-17T03:23:05.803Z,99.99
2022-10-17T03:24:06.151Z,99.99
2022-10-17T03:25:06.355Z,99.99
2022-10-17T03:26:06.686Z,99.99
2022-10-17T03:27:06.922Z,99.99
2022-10-17T03:28:07.114Z,99.99
2022-10-17T03:29:07.479Z,99.99
2022-10-17T03:30:07.716Z,99.99
2022-10-17T03:31:08.040Z,99.99
2022-10-17T03:32:08.399Z,99.99
2022-10-17T03:33:08.596Z,99.99
2022-10-17T03:34:08.886Z,99.99
2022-10-17T03:35:12.615Z,99.99
2022-10-17T03:36:10.481Z,99.99
2022-10-17T03:37:09.761Z,99.99
2022-10-17T03:38:10.110Z,99.99
2022-10-17T03:39:10.353Z,99.99
2022-10-17T03:40:10.571Z,99.99
2022-10-17T03:41:10.886Z,99.99
2022-10-17T03:42:11.246Z,99.99
2022-10-17T03:43:11.467Z,99.99
2022-10-17T03:44:11.780Z,99.99
2022-10-17T03:45:12.120Z,99.99
2022-10-17T03:46:12.341Z,99.99
2022-10-17T03:47:14.259Z,99.99
2022-10-17T03:48:12.868Z,99.99
2022-10-17T03:49:13.192Z,99.99
2022-10-17T03:50:13.560Z,99.99
2022-10-17T03:51:13.764Z,99.99
2022-10-17T03:52:14.103Z,99.99
2022-10-17T03:53:14.422Z,99.99
2022-10-17T03:54:14.775Z,99.99
2022-10-17T03:55:15.005Z,99.99
2022-10-17T03:56:15.217Z,99.99
2022-10-17T03:57:15.560Z,99.99
2022-10-17T03:58:15.764Z,99.99
2022-10-17T03:59:15.976Z,99.99
2022-10-17T04:00:16.297Z,99.99
2022-10-17T04:01:16.663Z,99.99
2022-10-17T04:02:16.950Z,99.99
2022-10-17T04:03:17.442Z,99.99
2022-10-17T04:04:17.499Z,99.99
2022-10-17T04:05:17.829Z,99.99
2022-10-17T04:06:18.126Z,99.99
2022-10-17T04:07:18.508Z,99.99
2022-10-17T04:08:18.704Z,99.99
2022-10-17T04:09:19.017Z,99.99
2022-10-17T04:10:19.336Z,99.99
2022-10-17T04:11:19.641Z,99.99
2022-10-17T04:12:20.023Z,99.99
2022-10-17T04:13:20.231Z,99.99
2022-10-17T04:14:20.561Z,99.99
2022-10-17T04:15:20.879Z,99.99
2022-10-17T04:16:21.188Z,99.99
2022-10-17T04:17:21.556Z,99.57
2022-10-17T04:18:21.759Z,99.27
2022-10-17T04:19:22.059Z,99.88
2022-10-17T04:20:22.382Z,99.99
2022-10-17T04:21:22.706Z,99.99
2022-10-17T04:22:23.044Z,99.99
2022-10-17T04:23:23.253Z,99.99
2022-10-17T04:24:23.578Z,99.99
2022-10-17T04:25:23.900Z,99.99
2022-10-17T04:26:24.214Z,99.99
2022-10-17T04:27:24.543Z,99.99
2022-10-17T04:28:24.864Z,99.99
2022-10-17T04:29:25.019Z,99.99
2022-10-17T04:30:25.333Z,99.99
2022-10-17T04:31:25.661Z,99.99
2022-10-17T04:32:26.158Z,99.99
2022-10-17T04:33:26.223Z,99.99
2022-10-17T04:34:26.522Z,99.99
2022-10-17T04:35:26.831Z,99.99
2022-10-17T04:36:27.151Z,99.99
2022-10-17T04:37:27.482Z,99.99
2022-10-17T04:38:28.687Z,99.99
2022-10-17T04:39:28.004Z,99.99
2022-10-17T04:40:28.359Z,99.99
2022-10-17T04:41:28.551Z,99.99
2022-10-17T04:42:29.098Z,99.99
2022-10-17T04:43:29.093Z,99.99
2022-10-17T04:44:29.441Z,99.99
2022-10-17T04:45:29.664Z,99.99
2022-10-17T04:46:29.983Z,99.99
2022-10-17T04:47:30.242Z,99.99
2022-10-17T04:48:30.449Z,99.99
2022-10-17T04:49:30.892Z,99.99
2022-10-17T04:50:31.021Z,99.99
2022-10-17T04:51:31.237Z,99.99
2022-10-17T04:52:31.842Z,99.99
2022-10-17T04:53:31.842Z,99.99
2022-10-17T04:54:32.205Z,99.99
2022-10-17T04:55:32.404Z,99.99
2022-10-17T04:56:32.742Z,99.99
2022-10-17T04:57:33.060Z,99.99
2022-10-17T04:58:33.389Z,99.99
2022-10-17T04:59:33.735Z,99.99
2022-10-17T05:00:34.001Z,99.99
2022-10-17T05:01:34.233Z,99.99
2022-10-17T05:02:34.549Z,99.99
2022-10-17T05:03:34.887Z,99.99
2022-10-17T05:04:35.242Z,99.99
2022-10-17T05:05:35.434Z,99.99
2022-10-17T05:06:35.733Z,99.99
2022-10-17T05:07:36.032Z,99.99
2022-10-17T05:08:36.364Z,99.99
2022-10-17T05:09:36.593Z,99.99
2022-10-17T05:10:36.912Z,99.99
2022-10-17T05:11:37.244Z,99.99
2022-10-17T05:12:37.458Z,99.99
2022-10-17T05:13:37.788Z,99.99
2022-10-17T05:14:38.131Z,99.99
2022-10-17T05:15:38.338Z,99.99
2022-10-17T05:16:38.661Z,99.99
2022-10-17T05:17:39.012Z,99.99
2022-10-17T05:18:39.219Z,99.99
2022-10-17T05:19:39.533Z,99.99
2022-10-17T05:20:39.842Z,99.99
2022-10-17T05:21:40.207Z,99.99
2022-10-17T05:22:42.036Z,99.99
2022-10-17T05:23:40.667Z,99.99
2022-10-17T05:24:40.981Z,99.99
2022-10-17T05:25:41.279Z,99.99
2022-10-17T05:26:41.648Z,99.99
2022-10-17T05:27:41.921Z,99.99
2022-10-17T05:28:42.169Z,99.99
2022-10-17T05:29:42.398Z,99.99
2022-10-17T05:30:42.721Z,99.99
2022-10-17T05:31:43.102Z,99.99
2022-10-17T05:32:43.318Z,99.99
2022-10-17T05:33:43.642Z,99.99
2022-10-17T05:34:43.976Z,99.99
2022-10-17T05:35:44.335Z,99.99
2022-10-17T05:36:44.548Z,99.99
2022-10-17T05:37:44.866Z,99.99
2022-10-17T05:38:45.242Z,99.99
2022-10-17T05:39:49.205Z,99.99
2022-10-17T05:40:46.785Z,99.99
2022-10-17T05:41:46.081Z,99.99
2022-10-17T05:42:46.290Z,99.99
2022-10-17T05:43:46.598Z,99.99
2022-10-17T05:44:46.978Z,99.99
2022-10-17T05:45:47.184Z,99.99
2022-10-17T05:46:47.499Z,99.99
2022-10-17T05:47:47.707Z,99.99
2022-10-17T05:48:48.010Z,99.99
2022-10-17T05:49:51.417Z,99.99
2022-10-17T05:50:48.654Z,99.99
2022-10-17T05:51:48.972Z,99.99
2022-10-17T05:52:49.280Z,99.99
2022-10-17T05:53:49.593Z,99.99
2022-10-17T05:54:49.947Z,99.99
2022-10-17T05:55:50.176Z,99.99
2022-10-17T05:56:50.499Z,99.99
2022-10-17T05:57:50.822Z,99.99
2022-10-17T05:58:54.111Z,99.99
2022-10-17T05:59:51.386Z,99.99
2022-10-17T06:00:51.706Z,99.95
2022-10-17T06:01:52.023Z,99.54
2022-10-17T06:02:52.357Z,99.99
2022-10-17T06:03:52.719Z,99.99
2022-10-17T06:04:52.933Z,99.99
2022-10-17T06:05:53.192Z,99.99
2022-10-17T06:06:53.399Z,99.99
2022-10-17T06:07:56.972Z,99.99
2022-10-17T06:08:54.938Z,99.99
2022-10-17T06:09:54.221Z,99.99
2022-10-17T06:10:54.538Z,99.99
2022-10-17T06:11:54.852Z,99.54
2022-10-17T06:12:55.211Z,99.85
2022-10-17T06:13:55.469Z,99.44
2022-10-17T06:14:55.689Z,98.63
2022-10-17T06:15:56.000Z,97.91
2022-10-17T06:16:56.334Z,97.50
2022-10-17T06:17:56.552Z,97.71
2022-10-17T06:18:56.907Z,99.04
2022-10-17T06:19:57.109Z,99.75
2022-10-17T06:20:57.448Z,99.79
2022-10-17T06:21:57.782Z,99.39
2022-10-17T06:22:58.101Z,99.75
2022-10-17T06:23:58.429Z,99.99
2022-10-17T06:24:58.632Z,99.95
2022-10-17T06:25:58.962Z,99.95
2022-10-17T06:26:59.281Z,99.99
2022-10-17T06:27:59.639Z,99.99
2022-10-17T06:28:59.971Z,99.99
2022-10-17T06:30:00.145Z,99.99
2022-10-17T06:31:00.337Z,99.99
2022-10-17T06:32:00.671Z,99.86
2022-10-17T06:33:00.985Z,99.45
2022-10-17T06:34:01.304Z,99.55
2022-10-17T06:35:01.673Z,98.18
2022-10-17T06:36:01.887Z,96.45
2022-10-17T06:37:02.216Z,95.43
2022-10-17T06:38:02.539Z,95.43
2022-10-17T06:39:02.872Z,94.78
2022-10-17T06:40:03.085Z,94.68
2022-10-17T06:41:03.348Z,96.00
2022-10-17T06:42:03.571Z,95.69
2022-10-17T06:43:03.890Z,95.18
2022-10-17T06:44:04.210Z,95.54
2022-10-17T06:45:04.549Z,94.63
2022-10-17T06:46:04.806Z,94.63
2022-10-17T06:47:04.988Z,95.24
2022-10-17T06:48:05.352Z,94.73
2022-10-17T06:49:05.547Z,94.43
2022-10-17T06:50:05.874Z,95.24
2022-10-17T06:51:06.198Z,93.92
2022-10-17T06:52:06.526Z,93.87
2022-10-17T06:53:06.874Z,95.91
2022-10-17T06:54:07.129Z,96.01
2022-10-17T06:55:07.347Z,96.47
2022-10-17T06:56:07.665Z,95.86
2022-10-17T06:57:07.969Z,92.87
2022-10-17T06:58:08.304Z,91.96
2022-10-17T06:59:08.671Z,91.75
2022-10-17T07:00:08.885Z,92.36
2022-10-17T07:02:09.511Z,92.16
2022-10-17T07:03:09.852Z,91.86
2022-10-17T07:04:10.190Z,92.67
2022-10-17T07:05:10.403Z,92.87
2022-10-17T07:06:10.738Z,92.83
2022-10-17T07:07:11.093Z,92.18
2022-10-17T07:08:11.293Z,90.31
2022-10-17T07:09:11.607Z,88.95
2022-10-17T07:10:11.951Z,88.20
2022-10-17T07:11:12.154Z,87.65
2022-10-17T07:12:12.513Z,86.69
2022-10-17T07:13:12.732Z,85.24
2022-10-17T07:14:13.055Z,84.12
2022-10-17T07:15:13.395Z,84.02
2022-10-17T07:16:13.784Z,83.98
2022-10-17T07:17:14.032Z,82.76
2022-10-17T07:18:14.229Z,82.22
2022-10-17T07:19:14.542Z,82.42
2022-10-17T07:20:14.870Z,81.88
2022-10-17T07:21:15.190Z,81.27
2022-10-17T07:22:15.538Z,82.08
2022-10-17T07:23:15.751Z,81.34
2022-10-17T07:24:16.081Z,80.49
2022-10-17T07:25:16.448Z,80.05
2022-10-17T07:26:16.675Z,79.71
2022-10-17T07:27:17.012Z,78.39
2022-10-17T07:28:17.340Z,78.90
2022-10-17T07:29:17.706Z,78.53
2022-10-17T07:30:17.913Z,78.13
2022-10-17T07:31:18.266Z,78.06
2022-10-17T07:32:18.468Z,79.58
2022-10-17T07:33:18.798Z,79.68
2022-10-17T07:34:19.001Z,80.25
2022-10-17T07:35:19.386Z,80.08
2022-10-17T07:36:19.563Z,80.39
2022-10-17T07:37:19.871Z,79.85
2022-10-17T07:38:20.200Z,80.25
2022-10-17T07:39:20.520Z,80.65
2022-10-17T07:40:20.857Z,79.44
2022-10-17T07:41:21.929Z,79.64
2022-10-17T07:42:21.494Z,78.84
2022-10-17T07:43:21.799Z,78.84
2022-10-17T07:44:22.157Z,79.88
2022-10-17T07:45:22.341Z,79.62
2022-10-17T07:46:22.649Z,79.92
2022-10-17T07:47:22.927Z,81.17
2022-10-17T07:48:23.271Z,81.27
2022-10-17T07:49:23.478Z,81.48
2022-10-17T07:50:23.782Z,82.32
2022-10-17T07:51:24.099Z,83.23
2022-10-17T07:52:24.451Z,83.54
2022-10-17T07:53:24.645Z,83.74
2022-10-17T07:54:24.961Z,83.78
2022-10-17T07:55:25.254Z,83.78
2022-10-17T07:56:25.548Z,85.80
2022-10-17T07:57:25.837Z,85.50
2022-10-17T07:58:26.132Z,85.30
2022-10-17T07:59:26.470Z,84.69
2022-10-17T08:00:26.783Z,84.89
2022-10-17T08:01:27.092Z,85.30
2022-10-17T08:02:27.783Z,85.33
2022-10-17T08:03:27.643Z,85.94
2022-10-17T08:04:28.007Z,85.94
2022-10-17T08:05:28.200Z,86.45
2022-10-17T08:06:28.473Z,86.90
2022-10-17T08:07:29.599Z,87.20
2022-10-17T08:08:28.990Z,87.51
2022-10-17T08:09:29.315Z,87.46
2022-10-17T08:10:29.634Z,87.46
2022-10-17T08:11:29.957Z,87.32
2022-10-17T08:12:30.567Z,86.31
2022-10-17T08:13:30.513Z,86.41
2022-10-17T08:14:30.861Z,85.90
2022-10-17T08:15:32.068Z,86.61
2022-10-17T08:16:31.277Z,85.90
2022-10-17T08:17:31.620Z,86.37
2022-10-17T08:18:31.830Z,85.46
2022-10-17T08:19:32.133Z,85.22
2022-10-17T08:20:32.419Z,84.81
2022-10-17T08:21:32.775Z,84.37
2022-10-17T08:22:33.085Z,84.06
2022-10-17T08:23:33.388Z,84.03
2022-10-17T08:24:33.705Z,83.07
2022-10-17T08:25:34.010Z,82.87
2022-10-17T08:26:35.054Z,81.73
2022-10-17T08:27:34.606Z,80.98
2022-10-17T08:28:34.956Z,80.13
2022-10-17T08:29:35.175Z,78.99
2022-10-17T08:30:35.494Z,78.85
2022-10-17T08:31:35.853Z,77.20
2022-10-17T08:32:36.039Z,76.76
2022-10-17T08:33:36.357Z,77.20
2022-10-17T08:34:36.677Z,73.34
2022-10-17T08:35:37.011Z,72.80
2022-10-17T08:36:37.354Z,71.97
2022-10-17T08:37:37.547Z,70.89
2022-10-17T08:38:40.376Z,70.36
2022-10-17T08:39:39.162Z,69.06
2022-10-17T08:40:38.442Z,68.32
2022-10-17T08:41:38.627Z,68.42
2022-10-17T08:42:38.953Z,68.05
2022-10-17T08:43:39.254Z,68.89
2022-10-17T08:44:39.571Z,69.42
2022-10-17T08:45:39.951Z,70.16
2022-10-17T08:46:40.149Z,70.03
2022-10-17T08:47:40.442Z,69.53
2022-10-17T08:48:44.057Z,69.62
2022-10-17T08:49:42.073Z,69.09
2022-10-17T08:50:41.374Z,68.85
2022-10-17T08:51:41.587Z,68.46
2022-10-17T08:52:41.916Z,68.82
2022-10-17T08:53:42.223Z,68.19
2022-10-17T08:54:42.563Z,67.96
2022-10-17T08:55:45.411Z,66.13
2022-10-17T08:56:48.567Z,65.72
2022-10-17T08:57:44.455Z,66.22
2022-10-17T08:58:43.782Z,65.69
2022-10-17T08:59:44.155Z,64.63
2022-10-17T09:00:44.343Z,64.73
2022-10-17T09:01:44.688Z,63.23
2022-10-17T09:02:45.097Z,63.60
2022-10-17T09:03:45.235Z,63.87
2022-10-17T09:04:45.604Z,62.18
2022-10-17T09:05:45.816Z,62.40
2022-10-17T09:06:46.190Z,60.49
2022-10-17T09:07:46.398Z,59.74
2022-10-17T09:08:46.707Z,59.53
2022-10-17T09:09:47.056Z,59.64
2022-10-17T09:10:47.384Z,58.58
2022-10-17T09:11:47.739Z,57.26
2022-10-17T09:12:47.951Z,58.06
2022-10-17T09:13:48.285Z,57.39
2022-10-17T09:14:48.599Z,57.42
2022-10-17T09:15:48.918Z,57.71
2022-10-17T09:16:49.266Z,58.97
2022-10-17T09:17:49.613Z,59.14
2022-10-17T09:18:49.808Z,58.31
2022-10-17T09:19:50.126Z,59.30
2022-10-17T09:20:50.446Z,61.18
2022-10-17T09:21:50.775Z,62.37
2022-10-17T09:22:51.124Z,61.65
2022-10-17T09:23:56.118Z,61.52
2022-10-17T09:24:52.627Z,60.59
2022-10-17T09:25:51.894Z,60.89
2022-10-17T09:26:52.207Z,60.26
2022-10-17T09:27:52.550Z,59.51
2022-10-17T09:28:52.900Z,58.78
2022-10-17T09:29:53.144Z,58.09
2022-10-17T09:30:53.466Z,57.52
2022-10-17T09:31:53.780Z,58.71
2022-10-17T09:32:54.029Z,58.54
2022-10-17T09:33:55.137Z,57.59
2022-10-17T09:34:54.636Z,56.24
2022-10-17T09:35:54.995Z,55.90
2022-10-17T09:36:55.198Z,57.62
2022-10-17T09:37:55.506Z,59.30
2022-10-17T09:38:55.814Z,61.55
2022-10-17T09:39:56.148Z,58.94
2022-10-17T09:40:57.236Z,58.34
2022-10-17T09:41:56.771Z,60.28
2022-10-17T09:42:57.084Z,63.49
2022-10-17T09:43:57.378Z,63.56
2022-10-17T09:44:57.713Z,64.39
2022-10-17T09:45:58.024Z,65.42
2022-10-17T09:46:58.349Z,65.33
2022-10-17T09:48:01.011Z,64.26
2022-10-17T09:48:58.946Z,63.40
2022-10-17T09:49:59.246Z,63.10
2022-10-17T09:51:14.645Z,63.43
2022-10-17T09:52:00.850Z,64.39
2022-10-17T09:53:00.125Z,65.42
2022-10-17T09:54:00.459Z,66.13
2022-10-17T09:55:00.757Z,66.42
2022-10-17T09:56:01.076Z,67.46
2022-10-17T09:57:01.384Z,66.82
2022-10-17T09:58:01.718Z,66.19
2022-10-17T09:59:02.042Z,66.42
2022-10-17T10:00:02.456Z,66.32
2022-10-17T10:01:02.664Z,65.92
2022-10-17T10:02:02.858Z,66.02
2022-10-17T10:03:03.242Z,66.52
2022-10-17T10:04:03.500Z,66.63
2022-10-17T10:05:05.621Z,67.32
2022-10-17T10:06:04.027Z,67.05
2022-10-17T10:07:04.320Z,67.32
2022-10-17T10:08:04.606Z,67.76
2022-10-17T10:09:04.882Z,68.55
2022-10-17T10:10:05.207Z,68.26
2022-10-17T10:11:05.512Z,67.66
2022-10-17T10:12:05.813Z,67.25
2022-10-17T10:13:06.137Z,67.46
2022-10-17T10:14:06.441Z,67.99
2022-10-17T10:15:06.738Z,68.69
2022-10-17T10:16:07.062Z,69.29
2022-10-17T10:17:07.250Z,68.79
2022-10-17T10:18:07.548Z,68.09
2022-10-17T10:19:09.149Z,66.78
2022-10-17T10:20:08.136Z,66.86
2022-10-17T10:21:08.455Z,67.22
2022-10-17T10:22:08.798Z,66.32
2022-10-17T10:23:09.118Z,67.43
2022-10-17T10:24:09.473Z,66.09
2022-10-17T10:25:09.658Z,66.89
2022-10-17T10:26:12.318Z,66.79
2022-10-17T10:27:10.220Z,67.19
2022-10-17T10:28:10.540Z,66.66
2022-10-17T10:29:11.011Z,65.13
2022-10-17T10:30:11.361Z,63.27
2022-10-17T10:31:11.371Z,62.15
2022-10-17T10:32:11.646Z,61.39
2022-10-17T10:33:11.916Z,60.83
2022-10-17T10:34:12.266Z,59.25
2022-10-17T10:35:12.443Z,58.47
2022-10-17T10:36:12.737Z,55.61
2022-10-17T10:37:14.753Z,53.58
2022-10-17T10:38:13.339Z,52.78
2022-10-17T10:39:13.663Z,51.57
2022-10-17T10:40:14.016Z,50.98
2022-10-17T10:41:14.222Z,51.60
2022-10-17T10:42:14.551Z,52.34
2022-10-17T10:43:14.756Z,50.83
2022-10-17T10:44:15.045Z,50.07
2022-10-17T10:45:29.413Z,50.49
2022-10-17T10:46:16.701Z,47.06
2022-10-17T10:47:15.936Z,45.72
2022-10-17T10:48:16.274Z,43.80
2022-10-17T10:49:16.587Z,44.47
2022-10-17T10:50:16.942Z,42.88
2022-10-17T10:51:17.125Z,43.04
2022-10-17T10:52:17.415Z,41.66
2022-10-17T10:53:17.731Z,43.04
2022-10-17T10:54:18.039Z,41.88
2022-10-17T10:55:18.358Z,42.71
2022-10-17T10:56:18.683Z,43.85
2022-10-17T10:57:19.001Z,44.76
2022-10-17T10:58:19.315Z,45.39
2022-10-17T10:59:19.626Z,46.34
2022-10-17T11:00:19.927Z,47.87
2022-10-17T11:01:20.317Z,48.93
2022-10-17T11:02:20.573Z,49.01
2022-10-17T11:03:20.867Z,48.83
2022-10-17T11:04:23.005Z,49.72
2022-10-17T11:05:21.425Z,49.02
2022-10-17T11:06:21.733Z,49.62
2022-10-17T11:07:22.077Z,50.78
2022-10-17T11:08:22.275Z,48.41
2022-10-17T11:09:22.583Z,48.61
2022-10-17T11:10:22.917Z,47.60
2022-10-17T11:11:23.231Z,47.28
2022-10-17T11:12:23.539Z,47.45
2022-10-17T11:13:23.855Z,46.10
2022-10-17T11:14:24.152Z,44.44
2022-10-17T11:15:24.501Z,43.98
2022-10-17T11:16:24.811Z,42.05
2022-10-17T11:17:25.167Z,40.84
2022-10-17T11:18:25.397Z,42.48
2022-10-17T11:19:25.590Z,40.53
2022-10-17T11:20:25.894Z,40.55
2022-10-17T11:21:26.202Z,41.15
2022-10-17T11:22:29.045Z,41.39
2022-10-17T11:23:26.863Z,42.80
2022-10-17T11:24:27.179Z,43.18
2022-10-17T11:25:27.377Z,41.17
2022-10-17T11:26:27.756Z,41.03
2022-10-17T11:27:27.968Z,40.09
2022-10-17T11:28:28.385Z,38.01
2022-10-17T11:29:28.589Z,37.48
2022-10-17T11:30:28.893Z,36.99
2022-10-17T11:31:29.218Z,37.24
2022-10-17T11:32:29.929Z,38.82
2022-10-17T11:33:29.816Z,40.55
2022-10-17T11:34:30.123Z,41.96
2022-10-17T11:35:30.422Z,41.80
2022-10-17T11:36:30.719Z,40.25
2022-10-17T11:37:31.034Z,38.81
2022-10-17T11:38:31.363Z,38.67
2022-10-17T11:39:31.666Z,37.40
2022-10-17T11:40:31.975Z,36.52
2022-10-17T11:41:32.283Z,36.11
2022-10-17T11:42:32.981Z,36.98
2022-10-17T11:43:32.836Z,37.45
2022-10-17T11:44:33.150Z,35.38
2022-10-17T11:45:33.454Z,35.78
2022-10-17T11:46:33.787Z,35.53
2022-10-17T11:47:34.150Z,34.56
2022-10-17T11:48:34.465Z,33.88
2022-10-17T11:49:38.225Z,34.68
2022-10-17T11:52:55.502Z,34.78
2022-10-17T11:53:36.854Z,35.51
2022-10-17T11:54:36.097Z,36.43
2022-10-17T11:55:36.423Z,37.30
2022-10-17T11:56:41.813Z,38.87
2022-10-17T11:57:38.013Z,37.93
2022-10-17T11:58:37.540Z,37.24
2022-10-17T11:59:37.547Z,36.62
2022-10-17T12:00:40.545Z,36.00
2022-10-17T12:01:38.260Z,35.80
2022-10-17T12:02:39.204Z,36.10
2022-10-17T12:03:38.656Z,36.21
2022-10-17T12:04:39.358Z,36.41
2022-10-17T12:05:39.082Z,35.69
2022-10-17T12:06:39.407Z,38.09
2022-10-17T12:07:39.766Z,34.24
2022-10-17T12:08:40.007Z,34.88
2022-10-17T12:09:40.341Z,34.64
2022-10-17T12:10:40.655Z,32.00
2022-10-17T12:11:40.992Z,31.97
2022-10-17T12:12:41.331Z,31.26
2022-10-17T12:13:41.636Z,31.28
2022-10-17T12:14:41.985Z,31.56
2022-10-17T12:15:46.473Z,30.76
2022-10-17T12:17:42.764Z,32.06
2022-10-17T12:18:42.943Z,31.84
2022-10-17T12:19:43.225Z,29.97
2022-10-17T12:20:43.559Z,29.49
2022-10-17T12:21:43.764Z,30.18
2022-10-17T12:22:44.136Z,29.90
2022-10-17T12:23:44.344Z,29.78
2022-10-17T12:24:44.648Z,30.15
2022-10-17T12:25:44.983Z,29.83
2022-10-17T12:26:45.292Z,28.85
2022-10-17T12:27:45.650Z,28.94
2022-10-17T12:28:45.890Z,29.87
2022-10-17T12:29:46.105Z,28.89
2022-10-17T12:30:46.455Z,27.92
2022-10-17T12:31:47.554Z,27.23
2022-10-17T12:33:04.143Z,27.33
2022-10-17T12:33:48.438Z,27.89
2022-10-17T12:34:47.691Z,27.42
2022-10-17T12:35:48.003Z,27.81
2022-10-17T12:36:48.340Z,27.61
2022-10-17T12:37:48.531Z,27.24
2022-10-17T12:38:49.870Z,27.66
2022-10-17T12:39:49.181Z,28.26
2022-10-17T12:40:49.500Z,28.87
2022-10-17T12:41:49.860Z,28.74
2022-10-17T12:42:50.058Z,28.45
2022-10-17T12:44:51.358Z,28.16
2022-10-17T12:45:51.077Z,28.64
2022-10-17T12:46:51.338Z,28.55
2022-10-17T12:47:51.550Z,28.26
2022-10-17T12:48:51.813Z,28.42
2022-10-17T12:49:56.487Z,27.66
2022-10-17T12:50:52.425Z,28.20
2022-10-17T12:51:52.759Z,27.35
2022-10-17T12:52:53.064Z,27.64
2022-10-17T12:53:53.408Z,27.86
2022-10-17T12:55:00.622Z,27.96
2022-10-17T12:55:54.946Z,28.34
2022-10-17T12:56:54.233Z,27.76
2022-10-17T12:57:54.580Z,27.76
2022-10-17T12:58:54.882Z,28.34
2022-10-17T12:59:57.976Z,27.85
2022-10-17T13:01:18.964Z,27.17
2022-10-17T13:01:56.752Z,27.67
2022-10-17T13:02:56.015Z,27.57
2022-10-17T13:03:56.310Z,27.87
2022-10-17T13:04:56.625Z,28.07
2022-10-17T13:05:56.970Z,27.96
2022-10-17T13:06:57.167Z,28.58
2022-10-17T13:07:57.487Z,28.58
2022-10-17T13:09:03.328Z,28.58
2022-10-17T13:09:59.126Z,28.29
2022-10-17T13:10:58.403Z,29.10
2022-10-17T13:11:58.780Z,30.62
2022-10-17T13:12:58.974Z,31.12
2022-10-17T13:13:59.287Z,31.81
2022-10-17T13:14:59.596Z,31.31
2022-10-17T13:15:59.946Z,30.81
2022-10-17T13:17:00.134Z,31.73
2022-10-17T13:18:00.471Z,33.91
2022-10-17T13:19:00.781Z,33.43
2022-10-17T13:20:01.074Z,33.02
2022-10-17T13:21:01.419Z,32.68
2022-10-17T13:22:06.536Z,32.39
2022-10-17T13:23:03.018Z,32.18
2022-10-17T13:24:02.279Z,31.39
2022-10-17T13:25:02.596Z,31.50
2022-10-17T13:26:02.930Z,30.99
2022-10-17T13:27:07.056Z,30.47
2022-10-17T13:28:03.537Z,30.55
2022-10-17T13:29:03.978Z,30.63
2022-10-17T13:30:04.136Z,30.49
2022-10-17T13:31:04.440Z,30.98
2022-10-17T13:32:04.795Z,30.47
2022-10-17T13:33:04.985Z,30.46
2022-10-17T13:34:05.279Z,29.90
2022-10-17T13:35:05.597Z,30.10
2022-10-17T13:36:05.952Z,30.91
2022-10-17T13:37:06.183Z,31.02
2022-10-17T13:38:06.518Z,31.39
2022-10-17T13:39:09.405Z,30.51
2022-10-17T13:40:30.892Z,31.23
2022-10-17T13:41:33.588Z,31.92
2022-10-17T13:42:08.550Z,32.49
2022-10-17T13:43:07.798Z,31.82
2022-10-17T13:44:08.087Z,32.42
2022-10-17T13:45:08.401Z,32.15
2022-10-17T13:46:32.583Z,32.15
2022-10-17T13:47:10.078Z,32.92
2022-10-17T13:48:09.343Z,33.14
2022-10-17T13:49:09.657Z,32.23
2022-10-17T13:50:26.384Z,31.92
2022-10-17T13:51:11.405Z,32.02
2022-10-17T13:52:10.579Z,32.04
2022-10-17T13:53:10.885Z,32.31
2022-10-17T13:54:11.169Z,32.02
2022-10-17T13:55:14.287Z,31.73
2022-10-17T13:56:29.551Z,32.04
2022-10-17T13:57:13.089Z,33.02
2022-10-17T13:58:12.231Z,32.86
2022-10-17T13:59:12.552Z,33.65
2022-10-17T14:00:12.864Z,34.27
2022-10-17T14:01:13.221Z,35.10
2022-10-17T14:02:13.462Z,35.82
2022-10-17T14:03:13.674Z,36.63
2022-10-17T14:04:19.751Z,37.96
2022-10-17T14:05:18.316Z,39.39
2022-10-17T14:06:14.612Z,40.80
2022-10-17T14:07:14.964Z,41.14
2022-10-17T14:08:21.856Z,42.18
2022-10-17T14:09:16.574Z,43.82
2022-10-17T14:10:15.835Z,44.94
2022-10-17T14:11:16.193Z,45.46
2022-10-17T14:12:16.397Z,45.65
2022-10-17T14:13:16.732Z,46.59
2022-10-17T14:14:17.056Z,47.67
2022-10-17T14:15:17.363Z,47.40
2022-10-17T14:16:17.677Z,48.21
2022-10-17T14:17:17.995Z,49.02
2022-10-17T14:18:18.365Z,49.15
2022-10-17T14:19:18.543Z,49.96
2022-10-17T14:21:40.569Z,50.06
2022-10-17T14:22:20.486Z,49.69
2022-10-17T14:23:22.902Z,50.29
2022-10-17T14:24:20.076Z,50.98
2022-10-17T14:25:20.364Z,51.10
2022-10-17T14:26:20.668Z,52.02
2022-10-17T14:27:22.319Z,52.94
2022-10-17T14:28:21.234Z,53.56
2022-10-17T14:29:21.568Z,54.08
2022-10-17T14:30:38.802Z,54.77
2022-10-17T14:31:23.189Z,54.60
2022-10-17T14:32:22.470Z,55.12
2022-10-17T14:33:22.841Z,55.42
2022-10-17T14:34:22.981Z,56.21
2022-10-17T14:35:41.092Z,56.04
2022-10-17T14:36:24.636Z,56.94
2022-10-17T14:37:23.868Z,57.01
2022-10-17T14:38:24.155Z,55.94
2022-10-17T14:39:24.490Z,56.34
2022-10-17T14:40:24.801Z,56.74
2022-10-17T14:42:26.407Z,57.06
2022-10-17T14:43:25.642Z,56.77
2022-10-17T14:44:25.929Z,56.79
2022-10-17T14:45:26.248Z,57.49
2022-10-17T14:46:26.558Z,58.51
2022-10-17T14:47:43.869Z,58.22
2022-10-17T14:48:28.192Z,58.41
2022-10-17T14:49:27.425Z,58.41
2022-10-17T14:50:27.757Z,58.74
2022-10-17T14:51:32.500Z,59.66
2022-10-17T14:52:29.496Z,60.26
2022-10-17T14:53:28.505Z,60.59
2022-10-17T14:54:28.791Z,60.56
2022-10-17T14:55:29.088Z,60.86
2022-10-17T14:56:29.401Z,60.39
2022-10-17T14:57:29.726Z,61.39
2022-10-17T14:58:30.014Z,60.89
2022-10-17T14:59:52.929Z,61.09
2022-10-17T15:00:31.702Z,60.72
2022-10-17T15:01:30.991Z,61.22
2022-10-17T15:02:31.653Z,61.22
2022-10-17T15:03:31.471Z,61.41
2022-10-17T15:04:32.567Z,61.32
2022-10-17T15:05:31.934Z,62.21
2022-10-17T15:06:32.241Z,61.82